Time;durP1;ratioP1;P1;durP2;ratioP2;P2;SDS_P1;SDS_P2;PMS_P1;PMS_P2;Temp;Humidity;BMP_temperature;BMP_pressure;BME280_temperature;BME280_humidity;BME280_pressure;Samples;Min_cycle;Max_cycle;Signal;HPM_P1;HPM_P2
2022/03/12 00:01:29;;;;;;;20.90;19.90;;;10.40;73.50;;;;;;4967312;28;20042;-91
2022/03/12 00:03:55;;;;;;;20.90;19.90;;;10.40;73.50;;;;;;4971015;28;20046;-91
2022/03/12 00:06:24;;;;;;;20.50;19.60;;;10.40;73.60;;;;;;4973290;28;20491;-91
2022/03/12 00:08:55;;;;;;;20.40;19.50;;;10.40;73.60;;;;;;4973091;28;20477;-92
2022/03/12 00:11:26;;;;;;;20.63;19.73;;;10.40;73.60;;;;;;4970924;28;20035;-91
2022/03/12 00:13:55;;;;;;;20.20;19.30;;;10.40;73.50;;;;;;4940129;28;20043;-90
2022/03/12 00:16:25;;;;;;;20.40;19.50;;;10.30;73.50;;;;;;4973254;28;20034;-91
2022/03/12 00:18:55;;;;;;;20.48;19.55;;;10.40;73.60;;;;;;4954145;28;20484;-90
2022/03/12 00:21:23;;;;;;;20.42;19.52;;;10.30;73.60;;;;;;4972929;28;20031;-88
2022/03/12 00:23:53;;;;;;;19.90;19.00;;;10.40;73.60;;;;;;4954658;28;20464;-90
2022/03/12 00:26:20;;;;;;;20.50;19.60;;;10.30;73.60;;;;;;4971366;28;20492;-90
2022/03/12 00:28:47;;;;;;;20.42;19.52;;;10.40;73.60;;;;;;4972908;28;20503;-90
2022/03/12 00:31:13;;;;;;;19.73;18.83;;;10.30;73.60;;;;;;4970913;28;20042;-91
2022/03/12 00:33:39;;;;;;;21.60;20.50;;;10.30;73.70;;;;;;4971507;28;20035;-90
2022/03/12 00:36:06;;;;;;;19.95;19.05;;;10.30;73.70;;;;;;4956310;28;20034;-91
2022/03/12 00:38:32;;;;;;;19.60;18.70;;;10.30;73.70;;;;;;4971049;28;20059;-90
2022/03/12 00:41:01;;;;;;;19.90;19.00;;;10.30;73.70;;;;;;4971854;28;20035;-90
2022/03/12 00:43:27;;;;;;;20.58;19.67;;;10.30;73.70;;;;;;4971992;28;20038;-90
2022/03/12 00:45:53;;;;;;;20.10;19.17;;;10.30;73.70;;;;;;4953474;28;20039;-90
2022/03/12 00:48:19;;;;;;;20.55;19.65;;;10.30;73.80;;;;;;4954857;28;20042;-91
2022/03/12 00:50:45;;;;;;;20.23;19.33;;;10.20;73.80;;;;;;4971500;28;20027;-91
2022/03/12 00:53:11;;;;;;;20.45;19.55;;;10.30;73.80;;;;;;4972051;28;20054;-91
2022/03/12 00:55:38;;;;;;;20.33;19.42;;;10.20;73.80;;;;;;4955592;28;20034;-90
2022/03/12 00:58:04;;;;;;;20.90;19.90;;;10.20;73.80;;;;;;4972227;28;20038;-90
2022/03/12 01:00:30;;;;;;;19.92;18.92;;;10.20;73.80;;;;;;4969621;28;20043;-90
2022/03/12 01:02:56;;;;;;;19.90;19.00;;;10.20;73.80;;;;;;4971018;28;20477;-91
2022/03/12 01:05:40;;;;;;;20.38;19.38;;;10.20;73.80;;;;;;4970591;28;20042;-90
2022/03/12 01:08:07;;;;;;;21.25;20.25;;;10.20;73.80;;;;;;4970960;28;20027;-92
2022/03/12 01:10:33;;;;;;;19.88;18.98;;;10.20;73.80;;;;;;4940863;28;20057;-91
2022/03/12 01:12:59;;;;;;;20.60;19.70;;;10.20;73.90;;;;;;4971491;28;20050;-90
2022/03/12 01:15:25;;;;;;;20.50;19.60;;;10.20;73.90;;;;;;4954296;28;20038;-89
2022/03/12 01:17:52;;;;;;;20.55;19.65;;;10.10;73.90;;;;;;4970642;28;20061;-90
2022/03/12 01:20:20;;;;;;;20.85;19.88;;;10.20;74.00;;;;;;4969758;28;20035;-90
2022/03/12 01:22:46;;;;;;;20.30;19.40;;;10.10;74.00;;;;;;4956056;28;20403;-91
2022/03/12 01:25:12;;;;;;;20.40;19.50;;;10.10;74.00;;;;;;4955530;28;20065;-90
2022/03/12 01:27:38;;;;;;;20.50;19.60;;;10.10;74.00;;;;;;4948602;28;20396;-90
2022/03/12 01:30:07;;;;;;;20.15;19.25;;;10.10;74.00;;;;;;4970880;28;20042;-90
2022/03/12 01:32:33;;;;;;;20.23;19.33;;;10.10;74.10;;;;;;4971419;28;20050;-90
2022/03/12 01:35:00;;;;;;;20.50;19.58;;;10.00;74.00;;;;;;4973208;28;20030;-89
2022/03/12 01:37:27;;;;;;;20.58;19.45;;;10.00;74.10;;;;;;4973157;28;20049;-90
2022/03/12 01:39:54;;;;;;;20.67;19.55;;;10.00;74.10;;;;;;4970883;28;20059;-91
2022/03/12 01:42:21;;;;;;;20.38;19.48;;;10.00;74.10;;;;;;4974764;28;20518;-90
2022/03/12 01:44:47;;;;;;;19.92;19.02;;;10.10;74.10;;;;;;4975425;28;20022;-90
2022/03/12 01:47:19;;;;;;;20.80;19.65;;;10.10;74.10;;;;;;4973824;28;20047;-90
2022/03/12 01:49:47;;;;;;;21.42;19.73;;;10.00;74.10;;;;;;4975329;28;20030;-90
2022/03/12 01:52:13;;;;;;;20.17;19.27;;;10.00;74.10;;;;;;4975457;28;20042;-90
2022/03/12 01:54:42;;;;;;;21.65;20.55;;;10.00;74.10;;;;;;4975529;28;20026;-89
2022/03/12 01:57:09;;;;;;;21.00;19.58;;;10.00;74.10;;;;;;4974398;28;20039;-90
2022/03/12 01:59:38;;;;;;;20.80;19.75;;;10.00;74.10;;;;;;4972753;28;20038;-90
2022/03/12 02:02:06;;;;;;;19.70;18.80;;;10.00;74.20;;;;;;4957592;28;20042;-90
2022/03/12 02:04:32;;;;;;;19.40;18.50;;;10.00;74.30;;;;;;4973781;28;20034;-91
2022/03/12 02:07:00;;;;;;;20.50;19.50;;;9.90;74.20;;;;;;4974403;28;20049;-90
2022/03/12 02:09:26;;;;;;;21.15;20.00;;;9.90;74.20;;;;;;4959504;28;20050;-91
2022/03/12 02:11:52;;;;;;;19.98;19.08;;;9.90;74.30;;;;;;4974204;28;20035;-90
2022/03/12 02:14:23;;;;;;;20.10;19.20;;;9.90;74.30;;;;;;4972116;28;20499;-90
2022/03/12 02:16:54;;;;;;;20.05;19.15;;;9.90;74.30;;;;;;4941373;28;20034;-89
2022/03/12 02:19:21;;;;;;;19.85;18.95;;;9.90;74.30;;;;;;4974864;28;20034;-90
2022/03/12 02:21:51;;;;;;;19.48;18.58;;;9.90;74.30;;;;;;4938429;29;20054;-90
2022/03/12 02:24:18;;;;;;;19.92;19.02;;;9.90;74.30;;;;;;4967584;28;20031;-90
2022/03/12 02:26:44;;;;;;;19.80;18.90;;;9.90;74.20;;;;;;4973951;28;20034;-91
2022/03/12 02:29:12;;;;;;;19.50;18.60;;;9.90;74.30;;;;;;4958059;28;20059;-90
2022/03/12 02:31:50;;;;;;;20.15;19.23;;;9.90;74.30;;;;;;4944851;28;20042;-90
2022/03/12 02:34:20;;;;;;;19.88;18.98;;;9.90;74.30;;;;;;4958423;28;20523;-91
2022/03/12 02:36:47;;;;;;;19.95;18.98;;;9.90;74.30;;;;;;4941255;28;20043;-90
2022/03/12 02:39:13;;;;;;;20.17;19.27;;;9.90;74.30;;;;;;4972512;28;20049;-90
2022/03/12 02:41:39;;;;;;;19.30;18.40;;;9.90;74.30;;;;;;4972969;28;20034;-90
2022/03/12 02:44:06;;;;;;;20.38;19.45;;;9.90;74.30;;;;;;4972276;28;20031;-90
2022/03/12 02:46:35;;;;;;;20.08;19.17;;;9.90;74.40;;;;;;4974590;28;20046;-90
2022/03/12 02:49:02;;;;;;;19.58;18.67;;;9.90;74.40;;;;;;4973111;28;20119;-91
2022/03/12 02:51:28;;;;;;;19.25;18.35;;;9.90;74.40;;;;;;4970835;28;20054;-92
2022/03/12 02:53:56;;;;;;;19.48;18.58;;;9.90;74.40;;;;;;4970145;28;20480;-90
2022/03/12 02:56:23;;;;;;;20.23;19.33;;;9.90;74.40;;;;;;4956336;28;20037;-90
2022/03/12 02:58:50;;;;;;;20.42;19.50;;;9.90;74.50;;;;;;4974066;28;20496;-91
2022/03/12 03:01:17;;;;;;;20.77;19.80;;;9.90;74.50;;;;;;4971214;28;20059;-91
2022/03/12 03:03:46;;;;;;;19.70;18.80;;;9.90;74.50;;;;;;4954281;28;20053;-90
2022/03/12 03:06:15;;;;;;;19.38;18.48;;;9.90;74.50;;;;;;4954898;28;20030;-91
2022/03/12 03:08:42;;;;;;;19.77;18.88;;;9.90;74.50;;;;;;4953022;28;20605;-90
2022/03/12 03:11:17;;;;;;;19.92;19.02;;;9.80;74.40;;;;;;4939466;28;20043;-89
2022/03/12 03:13:44;;;;;;;19.90;19.00;;;9.90;74.50;;;;;;4962446;28;20054;-90
2022/03/12 03:16:18;;;;;;;19.77;18.88;;;9.80;74.50;;;;;;4980560;28;20034;-90
2022/03/12 03:18:50;;;;;;;20.00;19.10;;;9.80;74.50;;;;;;4954929;28;20039;-89
2022/03/12 03:21:17;;;;;;;19.98;19.08;;;9.70;74.60;;;;;;4953932;28;20030;-90
2022/03/12 03:23:46;;;;;;;20.17;19.27;;;9.70;74.60;;;;;;4971480;28;20034;-92
2022/03/12 03:26:14;;;;;;;19.90;19.00;;;9.70;74.70;;;;;;4954467;28;20384;-91
2022/03/12 03:28:41;;;;;;;19.55;18.65;;;9.70;74.70;;;;;;4973181;28;20027;-91
2022/03/12 03:31:07;;;;;;;20.35;19.13;;;9.60;74.80;;;;;;4924632;28;20039;-90
2022/03/12 03:33:33;;;;;;;21.50;20.40;;;9.70;74.80;;;;;;4957200;28;20043;-91
2022/03/12 03:35:59;;;;;;;20.48;19.58;;;9.70;74.90;;;;;;4974619;28;20038;-90
2022/03/12 03:38:26;;;;;;;21.25;20.08;;;9.70;74.70;;;;;;4958911;28;20042;-91
2022/03/12 03:40:52;;;;;;;19.95;19.05;;;9.70;74.70;;;;;;4973918;28;20058;-90
2022/03/12 03:43:20;;;;;;;19.40;18.50;;;9.70;74.70;;;;;;4958797;28;20031;-91
2022/03/12 03:45:51;;;;;;;19.90;19.00;;;9.70;74.70;;;;;;4950416;28;20041;-90
2022/03/12 03:48:18;;;;;;;;;;;9.70;74.60;;;;;;4943360;28;20050;-90
2022/03/12 03:50:45;;;;;;;19.73;18.83;;;9.70;74.70;;;;;;4973547;28;19917;-91
2022/03/12 03:53:16;;;;;;;20.45;19.55;;;9.70;74.60;;;;;;4974608;28;20043;-91
2022/03/12 03:55:42;;;;;;;20.45;19.55;;;9.70;74.60;;;;;;4957738;28;20027;-89
2022/03/12 03:58:08;;;;;;;19.83;18.92;;;9.70;74.50;;;;;;4958494;28;20057;-92
2022/03/12 04:00:35;;;;;;;20.30;19.10;;;9.70;74.50;;;;;;4954615;28;20046;-91
2022/03/12 04:03:02;;;;;;;19.02;18.13;;;9.70;74.60;;;;;;4966758;28;20089;-89
2022/03/12 04:05:36;;;;;;;21.20;19.55;;;9.70;74.70;;;;;;4958865;28;20023;-82
2022/03/12 04:08:03;;;;;;;21.95;20.23;;;9.70;74.70;;;;;;4968542;28;20389;-83
2022/03/12 04:10:29;;;;;;;19.80;18.90;;;9.70;74.70;;;;;;4957324;28;20050;-85
2022/03/12 04:12:57;;;;;;;20.15;19.25;;;9.70;74.70;;;;;;4954177;28;20043;-84
2022/03/12 04:15:23;;;;;;;19.50;18.60;;;9.70;74.70;;;;;;4953470;28;20054;-84
2022/03/12 04:17:53;;;;;;;20.05;19.15;;;9.80;74.80;;;;;;4954863;28;20026;-89
2022/03/12 04:20:19;;;;;;;20.37;19.47;;;9.80;74.70;;;;;;4971453;28;20396;-89
2022/03/12 04:22:50;;;;;;;19.85;18.95;;;9.80;74.70;;;;;;4954890;28;20043;-89
2022/03/12 04:25:17;;;;;;;20.50;19.60;;;9.80;74.70;;;;;;4957232;28;20031;-88
2022/03/12 04:27:44;;;;;;;19.85;18.95;;;9.80;74.70;;;;;;4968992;28;20038;-89
2022/03/12 04:30:14;;;;;;;20.20;19.30;;;9.80;74.80;;;;;;4952694;28;20030;-88
2022/03/12 04:32:41;;;;;;;19.90;19.00;;;9.80;74.70;;;;;;4970628;28;20041;-88
2022/03/12 04:35:07;;;;;;;20.00;19.10;;;9.80;74.80;;;;;;4970898;28;20735;-89
2022/03/12 04:37:35;;;;;;;19.45;18.55;;;9.80;74.80;;;;;;4968801;28;20030;-88
2022/03/12 04:40:03;;;;;;;20.25;19.35;;;9.80;74.80;;;;;;4952829;28;20039;-89
2022/03/12 04:42:30;;;;;;;20.42;19.52;;;9.80;74.80;;;;;;4955870;28;20408;-89
2022/03/12 04:44:56;;;;;;;20.23;19.33;;;9.70;75.60;;;;;;4964907;28;20030;-88
2022/03/12 04:47:22;;;;;;;21.13;20.13;;;9.80;74.90;;;;;;4971262;28;20031;-87
2022/03/12 04:49:48;;;;;;;20.20;19.30;;;9.70;74.90;;;;;;4970764;28;20034;-86
2022/03/12 04:52:14;;;;;;;19.77;18.88;;;9.70;74.90;;;;;;4939921;28;20050;-87
2022/03/12 04:54:41;;;;;;;20.45;19.55;;;9.80;75.00;;;;;;4971148;28;20039;-88
2022/03/12 04:57:07;;;;;;;20.10;19.20;;;9.70;74.90;;;;;;4971161;28;20403;-87
2022/03/12 04:59:33;;;;;;;20.45;19.48;;;9.80;75.00;;;;;;4972924;28;20026;-88
2022/03/12 05:01:59;;;;;;;19.90;19.00;;;9.70;74.90;;;;;;4971139;28;20022;-87
2022/03/12 05:04:25;;;;;;;20.38;19.48;;;9.80;75.00;;;;;;4955362;28;20057;-88
2022/03/12 05:06:52;;;;;;;20.40;19.50;;;9.80;75.00;;;;;;4939345;28;20043;-89
2022/03/12 05:09:19;;;;;;;21.08;20.08;;;9.80;75.00;;;;;;4954759;28;20035;-88
2022/03/12 05:11:45;;;;;;;20.88;19.88;;;9.80;75.00;;;;;;4955502;28;20038;-87
2022/03/12 05:14:16;;;;;;;20.58;19.67;;;9.80;75.00;;;;;;4955042;28;20038;-88
2022/03/12 05:16:44;;;;;;;20.08;19.17;;;9.80;75.00;;;;;;4973165;28;20392;-85
2022/03/12 05:19:10;;;;;;;21.05;19.98;;;9.80;75.00;;;;;;4955388;28;20045;-88
2022/03/12 05:21:36;;;;;;;20.15;19.25;;;9.70;75.00;;;;;;4975336;28;20027;-89
2022/03/12 05:24:03;;;;;;;19.80;18.90;;;9.80;75.00;;;;;;4975338;28;20531;-89
2022/03/12 05:26:29;;;;;;;20.33;19.42;;;9.70;74.90;;;;;;4958659;28;20353;-90
2022/03/12 05:28:55;;;;;;;20.08;19.17;;;9.70;75.00;;;;;;4977947;28;20050;-90
2022/03/12 05:31:21;;;;;;;20.38;19.48;;;9.70;75.10;;;;;;4958433;28;20035;-88
2022/03/12 05:33:47;;;;;;;21.10;19.92;;;9.70;75.10;;;;;;4949904;28;20035;-89
2022/03/12 05:36:13;;;;;;;20.17;19.27;;;9.70;75.10;;;;;;4974575;28;20472;-89
2022/03/12 05:38:39;;;;;;;20.17;19.27;;;9.70;75.90;;;;;;4939144;28;20047;-88
2022/03/12 05:41:09;;;;;;;19.85;18.95;;;9.70;75.20;;;;;;4958986;28;20030;-90
2022/03/12 05:43:38;;;;;;;19.92;19.02;;;9.70;75.20;;;;;;4959122;28;20038;-89
2022/03/12 05:46:05;;;;;;;20.52;19.52;;;9.70;75.20;;;;;;4958425;28;20046;-91
2022/03/12 05:48:32;;;;;;;20.90;19.00;;;9.70;75.30;;;;;;4975557;28;20038;-90
2022/03/12 05:50:59;;;;;;;19.67;18.77;;;9.70;75.30;;;;;;4961110;28;20031;-91
2022/03/12 05:53:25;;;;;;;19.65;18.75;;;9.70;75.30;;;;;;4974721;28;20049;-91
2022/03/12 05:55:53;;;;;;;19.80;18.90;;;9.70;75.20;;;;;;4975600;28;20022;-91
2022/03/12 05:58:20;;;;;;;19.65;18.75;;;9.70;75.30;;;;;;4960375;28;20027;-91
2022/03/12 06:00:46;;;;;;;19.10;18.20;;;9.70;75.30;;;;;;4959322;28;20503;-91
2022/03/12 06:03:12;;;;;;;19.23;18.33;;;9.70;75.30;;;;;;4959424;28;20507;-91
2022/03/12 06:05:43;;;;;;;19.45;18.55;;;9.70;75.30;;;;;;4977159;28;20019;-88
2022/03/12 06:08:12;;;;;;;19.85;18.95;;;9.70;75.30;;;;;;4942431;28;20038;-92
2022/03/12 06:10:38;;;;;;;18.88;17.98;;;9.70;75.30;;;;;;4972110;28;20050;-91
2022/03/12 06:13:05;;;;;;;19.92;18.92;;;9.70;75.30;;;;;;4958983;28;20046;-92
2022/03/12 06:15:31;;;;;;;19.70;18.77;;;9.70;75.30;;;;;;4974392;28;20034;-92
2022/03/12 06:17:58;;;;;;;19.60;18.70;;;9.70;75.30;;;;;;4976345;28;20038;-91
2022/03/12 06:20:24;;;;;;;19.52;18.63;;;9.70;75.30;;;;;;4976124;28;20034;-91
2022/03/12 06:22:52;;;;;;;19.80;18.80;;;9.70;75.30;;;;;;4975408;28;20026;-91
2022/03/12 06:25:18;;;;;;;19.98;19.02;;;9.80;75.40;;;;;;4959954;28;20027;-92
2022/03/12 06:27:47;;;;;;;19.27;18.38;;;9.70;75.40;;;;;;4974683;28;20030;-92
2022/03/12 06:30:14;;;;;;;19.98;19.08;;;9.70;75.40;;;;;;4959253;28;20043;-91
2022/03/12 06:32:42;;;;;;;19.98;19.08;;;9.80;75.50;;;;;;4943797;28;20049;-91
2022/03/12 06:35:09;;;;;;;19.02;18.13;;;9.70;75.40;;;;;;4959314;28;20449;-91
2022/03/12 06:37:35;;;;;;;20.08;19.17;;;9.70;75.40;;;;;;4943477;28;20039;-91
2022/03/12 06:40:01;;;;;;;19.48;18.58;;;9.70;75.50;;;;;;4957725;28;20404;-91
2022/03/12 06:42:32;;;;;;;19.83;18.92;;;9.80;75.50;;;;;;4973804;28;20037;-92
2022/03/12 06:44:58;;;;;;;19.65;18.75;;;9.80;75.50;;;;;;4941869;28;20047;-92
2022/03/12 06:47:31;;;;;;;19.98;18.98;;;9.70;75.50;;;;;;4957105;28;20034;-91
2022/03/12 06:49:58;;;;;;;19.83;18.92;;;9.70;75.50;;;;;;4974618;28;20038;-91
2022/03/12 06:52:25;;;;;;;20.13;19.23;;;9.70;75.50;;;;;;4958198;28;20046;-92
2022/03/12 06:54:51;;;;;;;19.75;18.85;;;9.70;75.50;;;;;;4973762;28;20039;-91
2022/03/12 06:57:18;;;;;;;19.55;18.65;;;9.70;75.50;;;;;;4974573;28;20503;-91
2022/03/12 06:59:44;;;;;;;19.88;18.98;;;9.80;76.30;;;;;;4976383;28;20027;-87
2022/03/12 07:02:11;;;;;;;19.90;19.00;;;9.70;75.50;;;;;;4956864;28;20041;-91
2022/03/12 07:04:37;;;;;;;19.20;18.30;;;9.80;75.60;;;;;;4974076;28;20046;-90
2022/03/12 07:07:03;;;;;;;19.60;18.70;;;9.80;75.50;;;;;;4957023;28;20050;-90
2022/03/12 07:09:29;;;;;;;19.70;18.80;;;9.80;75.50;;;;;;4955448;28;20488;-90
2022/03/12 07:11:58;;;;;;;19.10;18.20;;;9.80;75.50;;;;;;4956651;28;20043;-91
2022/03/12 07:14:27;;;;;;;19.55;18.65;;;9.80;75.50;;;;;;4970877;28;20038;-89
2022/03/12 07:16:54;;;;;;;19.25;18.35;;;9.90;75.60;;;;;;4954111;28;20031;-89
2022/03/12 07:19:20;;;;;;;19.42;18.52;;;9.80;75.50;;;;;;4970466;28;20038;-90
2022/03/12 07:21:46;;;;;;;18.52;17.63;;;9.80;75.50;;;;;;4969654;28;20019;-87
2022/03/12 07:24:12;;;;;;;19.63;18.73;;;9.90;75.60;;;;;;4940079;28;20512;-89
2022/03/12 07:26:39;;;;;;;18.83;17.92;;;9.80;75.50;;;;;;4972419;28;20062;-88
2022/03/12 07:29:05;;;;;;;20.25;19.25;;;9.90;75.60;;;;;;4953892;28;20047;-87
2022/03/12 07:31:31;;;;;;;19.77;18.77;;;9.90;75.60;;;;;;4939456;28;20111;-87
2022/03/12 07:33:57;;;;;;;19.55;18.45;;;9.90;75.50;;;;;;4970693;28;20047;-86
2022/03/12 07:36:23;;;;;;;19.58;18.67;;;10.00;75.50;;;;;;4953026;28;20039;-88
2022/03/12 07:38:50;;;;;;;19.25;18.35;;;9.90;75.50;;;;;;4907467;28;1379220;-88
2022/03/12 07:41:16;;;;;;;19.75;18.85;;;10.00;75.50;;;;;;4953535;28;20051;-89
2022/03/12 07:43:42;;;;;;;19.80;18.90;;;10.00;75.50;;;;;;4973457;28;20027;-89
2022/03/12 07:46:08;;;;;;;19.83;18.92;;;10.00;75.50;;;;;;4956875;28;20051;-93
2022/03/12 07:48:34;;;;;;;20.08;19.17;;;10.00;75.50;;;;;;4939257;28;20492;-88
2022/03/12 07:51:01;;;;;;;19.88;18.98;;;10.00;75.50;;;;;;4934520;28;20113;-88
2022/03/12 07:53:28;;;;;;;20.15;19.25;;;10.00;75.50;;;;;;4954998;28;20055;-89
2022/03/12 07:55:54;;;;;;;20.40;19.50;;;10.10;76.20;;;;;;4973617;28;20027;-89
2022/03/12 07:58:20;;;;;;;21.08;20.08;;;10.20;75.50;;;;;;4950757;28;20043;-89
2022/03/12 08:00:47;;;;;;;21.70;20.52;;;10.20;75.50;;;;;;4955555;28;20515;-88
2022/03/12 08:03:14;;;;;;;20.95;19.95;;;10.30;75.50;;;;;;4955917;28;20465;-88
2022/03/12 08:05:40;;;;;;;19.88;18.98;;;10.30;75.40;;;;;;4956416;28;20046;-88
2022/03/12 08:08:06;;;;;;;21.42;20.42;;;10.50;75.20;;;;;;4954514;28;20035;-89
2022/03/12 08:11:24;;;;;;;21.00;19.92;;;10.70;74.90;;;;;;4972366;28;20035;-88
2022/03/12 08:13:21;;;;;;;20.25;19.35;;;10.90;74.40;;;;;;4973822;28;20517;-92
2022/03/12 08:15:49;;;;;;;21.58;20.38;;;11.10;74.10;;;;;;4954555;28;21265;-90
2022/03/12 08:18:16;;;;;;;21.00;20.00;;;11.20;74.00;;;;;;4970030;28;20038;-90
2022/03/12 08:20:44;;;;;;;21.05;20.05;;;11.20;74.00;;;;;;4971142;28;20034;-85
2022/03/12 08:23:10;;;;;;;21.67;20.67;;;11.30;74.00;;;;;;4963838;28;20026;-85
2022/03/12 08:25:37;;;;;;;1999.90;999.90;;;11.40;74.00;;;;;;4972082;28;20031;-85
2022/03/12 08:28:03;;;;;;;1505.47;755.20;;;11.50;73.90;;;;;;4972590;28;20035;-90
2022/03/12 08:30:29;;;;;;;1999.90;999.90;;;11.60;73.90;;;;;;4970267;28;20035;-87
2022/03/12 08:32:55;;;;;;;1999.90;999.90;;;11.70;73.70;;;;;;4971071;28;20053;-87
2022/03/12 08:35:22;;;;;;;1999.90;999.90;;;11.80;73.70;;;;;;4962363;28;20396;-86
2022/03/12 08:37:48;;;;;;;1999.90;999.90;;;11.90;73.60;;;;;;4973353;28;20050;-86
2022/03/12 08:40:14;;;;;;;1999.90;999.90;;;12.00;73.40;;;;;;4955500;28;20050;-90
2022/03/12 08:42:41;;;;;;;1999.90;999.90;;;12.20;73.30;;;;;;4967836;28;20031;-84
2022/03/12 08:45:08;;;;;;;1999.90;999.90;;;12.30;73.00;;;;;;4970572;28;20045;-83
2022/03/12 08:47:34;;;;;;;1999.90;999.90;;;12.50;72.80;;;;;;4970425;28;20467;-83
2022/03/12 08:50:00;;;;;;;1999.90;999.90;;;12.50;72.60;;;;;;4954502;28;20039;-90
2022/03/12 08:52:26;;;;;;;1999.90;999.90;;;12.70;72.60;;;;;;4939374;28;20043;-89
2022/03/12 08:54:52;;;;;;;1999.90;999.90;;;12.90;72.60;;;;;;4968230;28;20062;-87
2022/03/12 08:57:19;;;;;;;1999.90;999.90;;;13.00;72.30;;;;;;4969475;28;20038;-92
2022/03/12 08:59:45;;;;;;;1999.90;999.90;;;13.10;72.10;;;;;;4955180;28;20041;-89
2022/03/12 09:02:11;;;;;;;1999.90;999.90;;;13.10;72.10;;;;;;4967626;28;20035;-86
2022/03/12 09:04:37;;;;;;;1999.90;999.90;;;13.10;72.20;;;;;;4972118;28;20045;-87
2022/03/12 09:07:03;;;;;;;1999.90;999.90;;;13.00;72.30;;;;;;4954698;28;20043;-86
2022/03/12 09:09:30;;;;;;;1999.90;999.90;;;12.90;72.70;;;;;;4967199;28;20038;-86
2022/03/12 09:11:56;;;;;;;1999.90;999.90;;;12.90;72.80;;;;;;4965351;28;20042;-85
2022/03/12 09:14:23;;;;;;;1999.90;999.90;;;12.90;72.80;;;;;;4968272;28;20499;-86
2022/03/12 09:16:49;;;;;;;1999.90;999.90;;;13.00;72.80;;;;;;4971695;28;20036;-92
2022/03/12 09:19:15;;;;;;;1999.90;999.90;;;13.20;72.80;;;;;;4939036;28;20039;-82
2022/03/12 09:21:42;;;;;;;1999.90;999.90;;;13.40;73.10;;;;;;4969882;28;20034;-83
2022/03/12 09:24:11;;;;;;;1999.90;999.90;;;13.80;71.90;;;;;;4970504;28;20023;-89
2022/03/12 09:26:37;;;;;;;1999.90;999.90;;;14.20;71.10;;;;;;4968008;28;20030;-91
2022/03/12 09:29:03;;;;;;;1999.90;999.90;;;14.50;70.60;;;;;;4970689;28;20034;-90
2022/03/12 09:31:29;;;;;;;1999.90;999.90;;;14.70;70.10;;;;;;4952119;28;20074;-88
2022/03/12 09:33:55;;;;;;;1999.90;999.90;;;14.90;69.90;;;;;;4970204;28;20042;-85
2022/03/12 09:36:22;;;;;;;1999.90;999.90;;;15.10;69.70;;;;;;4971510;28;20023;-84
2022/03/12 09:38:48;;;;;;;1999.90;999.90;;;15.20;69.50;;;;;;4972173;28;20043;-85
2022/03/12 09:41:14;;;;;;;1999.90;999.90;;;15.30;69.40;;;;;;4971217;28;20039;-84
2022/03/12 09:43:41;;;;;;;1999.90;999.90;;;15.50;69.30;;;;;;4954909;28;20034;-84
2022/03/12 09:46:07;;;;;;;1999.90;999.90;;;15.60;69.10;;;;;;4954987;28;20488;-85
2022/03/12 09:48:33;;;;;;;1999.90;999.90;;;15.80;68.90;;;;;;4955027;28;20031;-85
2022/03/12 09:50:59;;;;;;;1999.90;999.90;;;16.00;68.70;;;;;;4968715;28;20046;-86
2022/03/12 09:53:26;;;;;;;1999.90;999.90;;;16.10;68.40;;;;;;4970149;28;20046;-85
2022/03/12 09:55:52;;;;;;;1999.90;999.90;;;16.30;68.20;;;;;;4969792;28;20415;-89
2022/03/12 09:58:18;;;;;;;1999.90;999.90;;;16.30;68.00;;;;;;4971601;28;20039;-90
2022/03/12 10:00:44;;;;;;;1999.90;999.90;;;16.40;67.80;;;;;;4972061;28;20039;-91
2022/03/12 10:03:11;;;;;;;1999.90;999.90;;;16.50;67.70;;;;;;4943119;28;20062;-91
2022/03/12 10:05:37;;;;;;;1999.90;999.90;;;16.70;67.70;;;;;;4959735;28;20030;-90
2022/03/12 10:08:03;;;;;;;1999.90;999.90;;;16.80;67.50;;;;;;4975746;28;20035;-92
2022/03/12 10:10:31;;;;;;;1999.90;999.90;;;17.00;67.30;;;;;;4944872;28;20070;-91
2022/03/12 10:12:57;;;;;;;1999.90;999.90;;;17.10;67.00;;;;;;4974537;28;20498;-93
2022/03/12 10:15:23;;;;;;;1999.90;999.90;;;17.10;66.80;;;;;;4954941;28;20046;-86
2022/03/12 10:17:49;;;;;;;1999.90;999.90;;;17.00;66.90;;;;;;4958032;28;20393;-84
2022/03/12 10:20:15;;;;;;;1999.90;999.90;;;16.80;67.10;;;;;;4971587;28;20096;-84
2022/03/12 10:22:42;;;;;;;1999.90;999.90;;;16.70;67.20;;;;;;4972835;28;20037;-81
2022/03/12 10:25:09;;;;;;;1999.90;999.90;;;16.60;67.40;;;;;;4973224;28;20034;-83
2022/03/12 10:27:35;;;;;;;1999.90;999.90;;;16.50;67.60;;;;;;4972037;28;20023;-82
2022/03/12 10:30:02;;;;;;;1999.90;999.90;;;16.40;67.50;;;;;;4973358;28;20027;-82
2022/03/12 10:32:34;;;;;;;1999.90;999.90;;;16.30;67.50;;;;;;4950017;28;20038;-84
2022/03/12 10:35:01;;;;;;;1999.90;999.90;;;16.20;67.60;;;;;;4973061;28;20055;-87
2022/03/12 10:37:30;;;;;;;1999.90;999.90;;;16.10;67.60;;;;;;4988721;28;20042;-88
2022/03/12 10:40:20;;;;;;;1999.90;999.90;;;16.00;67.80;;;;;;4970775;28;20517;-87
2022/03/12 10:42:57;;;;;;;1999.90;999.90;;;15.90;67.90;;;;;;4971450;28;20400;-86
2022/03/12 10:45:25;;;;;;;1999.90;999.90;;;15.80;67.80;;;;;;4968041;28;20030;-84
2022/03/12 10:47:56;;;;;;;1999.90;999.90;;;15.80;67.90;;;;;;4972412;28;20026;-84
2022/03/12 10:50:25;;;;;;;1999.90;999.90;;;15.90;67.80;;;;;;4972905;28;20018;-82
2022/03/12 10:52:54;;;;;;;1999.90;999.90;;;16.00;67.40;;;;;;4973242;28;20047;-85
2022/03/12 10:55:25;;;;;;;1999.90;999.90;;;16.10;67.10;;;;;;4955549;28;20059;-87
2022/03/12 10:57:57;;;;;;;;;;;16.10;66.90;;;;;;4955426;28;20050;-90
2022/03/12 11:00:27;;;;;;;1999.90;999.90;;;16.10;66.60;;;;;;4969947;28;19929;-85
2022/03/12 11:02:54;;;;;;;1999.90;999.90;;;16.10;66.20;;;;;;4968642;28;20042;-87
2022/03/12 11:05:27;;;;;;;1999.90;999.90;;;16.10;66.50;;;;;;4969522;28;20020;-87
2022/03/12 11:08:13;;;;;;;1999.90;999.90;;;16.00;66.40;;;;;;4974263;28;20062;-86
2022/03/12 11:10:52;;;;;;;1999.90;999.90;;;16.00;66.40;;;;;;4968963;28;20065;-83
2022/03/12 11:13:26;;;;;;;1999.90;999.90;;;16.00;66.40;;;;;;4971367;28;20384;-88
2022/03/12 11:16:07;;;;;;;1999.90;999.90;;;16.10;66.30;;;;;;4971229;28;20047;-90
2022/03/12 11:18:34;;;;;;;1999.90;999.90;;;16.40;65.90;;;;;;4971418;28;20034;-88
2022/03/12 11:21:00;;;;;;;1999.90;999.90;;;16.60;65.40;;;;;;4971850;28;20057;-88
2022/03/12 11:23:27;;;;;;;1999.90;999.90;;;16.80;64.70;;;;;;4954526;28;20039;-89
2022/03/12 11:25:58;;;;;;;1999.90;999.90;;;17.00;64.40;;;;;;4971718;28;20468;-87
2022/03/12 11:28:25;;;;;;;1999.90;999.90;;;17.10;64.10;;;;;;4971202;28;20038;-93
2022/03/12 11:30:51;;;;;;;1999.90;999.90;;;17.20;64.10;;;;;;4967761;28;20035;-92
2022/03/12 11:33:17;;;;;;;1999.90;999.90;;;17.30;63.60;;;;;;4933907;28;20049;-92
2022/03/12 11:35:44;;;;;;;1999.90;999.90;;;17.30;63.20;;;;;;4975267;28;20139;-92
2022/03/12 11:38:12;;;;;;;1999.90;999.90;;;17.40;63.30;;;;;;4955056;28;20042;-90
2022/03/12 11:40:47;;;;;;;1999.90;999.90;;;17.50;63.10;;;;;;4972308;28;20027;-91
2022/03/12 11:43:40;;;;;;;1999.90;999.90;;;17.60;63.00;;;;;;4954658;28;20027;-90
2022/03/12 11:46:07;;;;;;;1999.90;999.90;;;17.60;62.70;;;;;;4969713;28;20035;-91
2022/03/12 11:48:36;;;;;;;1999.90;999.90;;;17.70;62.90;;;;;;4970173;28;20031;-91
2022/03/12 11:51:03;;;;;;;1999.90;999.90;;;17.70;62.70;;;;;;4970349;28;20039;-90
2022/03/12 11:53:36;;;;;;;1999.90;999.90;;;17.70;62.60;;;;;;4956776;28;20042;-90
2022/03/12 11:56:04;;;;;;;1999.90;999.90;;;17.60;62.60;;;;;;4955206;28;20051;-91
2022/03/12 11:58:32;;;;;;;1999.90;999.90;;;17.40;63.60;;;;;;4953857;28;20042;-91
2022/03/12 12:00:58;;;;;;;1999.90;999.90;;;17.40;63.10;;;;;;4941038;28;20043;-88
2022/03/12 12:03:24;;;;;;;1999.90;999.90;;;17.40;62.80;;;;;;4970111;28;20368;-89
2022/03/12 12:05:52;;;;;;;1999.90;999.90;;;17.30;62.80;;;;;;4969837;28;20313;-90
2022/03/12 12:08:19;;;;;;;1999.90;999.90;;;17.20;62.80;;;;;;4968888;28;20483;-90
2022/03/12 12:10:46;;;;;;;1999.90;999.90;;;17.20;62.40;;;;;;4971130;28;20051;-90
2022/03/12 12:13:13;;;;;;;1999.90;999.90;;;17.20;62.20;;;;;;4955376;28;20035;-91
2022/03/12 12:15:41;;;;;;;1999.90;999.90;;;17.30;62.10;;;;;;4968063;28;20053;-90
2022/03/12 12:18:10;;;;;;;1999.90;999.90;;;17.40;61.40;;;;;;4953852;28;20039;-90
2022/03/12 12:20:36;;;;;;;1999.90;999.90;;;17.50;61.30;;;;;;4967253;28;20039;-90
2022/03/12 12:23:03;;;;;;;1999.90;999.90;;;17.60;61.00;;;;;;4937707;28;20146;-89
2022/03/12 12:29:31;;;;;;;1999.90;999.90;;;17.90;60.10;;;;;;4971218;28;20046;-90